createdAt,value
2019-01-18T00:00:33.240Z,3.88
2019-01-18T00:01:33.321Z,3.88
2019-01-18T00:02:33.404Z,3.92
2019-01-18T00:03:33.493Z,3.89
2019-01-18T00:04:33.582Z,3.97
2019-01-18T00:05:33.669Z,4.00
2019-01-18T00:06:33.758Z,3.88
2019-01-18T00:07:33.841Z,4.00
2019-01-18T00:08:33.931Z,3.94
2019-01-18T00:09:34.015Z,3.89
2019-01-18T00:10:34.103Z,3.90
2019-01-18T00:11:34.194Z,3.80
2019-01-18T00:12:34.278Z,3.94
2019-01-18T00:13:34.365Z,3.94
2019-01-18T00:14:34.456Z,3.86
2019-01-18T00:15:34.539Z,3.92
2019-01-18T00:16:34.631Z,3.96
2019-01-18T00:17:34.723Z,3.82
2019-01-18T00:18:34.804Z,3.88
2019-01-18T00:19:34.899Z,3.83
2019-01-18T00:20:34.979Z,3.88
2019-01-18T00:21:35.068Z,3.86
2019-01-18T00:22:35.155Z,3.96
2019-01-18T00:23:35.242Z,3.94
2019-01-18T00:24:35.334Z,3.92
2019-01-18T00:25:35.417Z,3.89
2019-01-18T00:26:35.502Z,3.88
2019-01-18T00:27:35.586Z,3.94
2019-01-18T00:28:35.662Z,3.96
2019-01-18T00:29:35.748Z,4.06
2019-01-18T00:30:35.843Z,4.03
2019-01-18T00:31:35.919Z,4.08
2019-01-18T00:32:36.008Z,4.08
2019-01-18T00:33:36.088Z,4.08
2019-01-18T00:34:36.176Z,4.04
2019-01-18T00:35:36.258Z,3.94
2019-01-18T00:36:36.347Z,4.04
2019-01-18T00:37:36.439Z,3.98
2019-01-18T00:38:36.524Z,4.06
2019-01-18T00:39:36.610Z,4.08
2019-01-18T00:40:36.693Z,4.04
2019-01-18T00:41:36.775Z,4.10
2019-01-18T00:42:37.514Z,4.01
2019-01-18T00:43:36.948Z,4.03
2019-01-18T00:44:37.034Z,4.01
2019-01-18T00:45:37.119Z,4.07
2019-01-18T00:46:37.214Z,4.10
2019-01-18T00:47:37.292Z,4.01
2019-01-18T00:48:37.389Z,4.00
2019-01-18T00:49:37.480Z,3.96
2019-01-18T00:50:37.561Z,4.06
2019-01-18T00:51:37.643Z,4.03
2019-01-18T00:52:37.725Z,4.03
2019-01-18T00:53:37.816Z,4.12
2019-01-18T00:54:37.906Z,4.08
2019-01-18T00:55:38.017Z,4.07
2019-01-18T00:56:38.068Z,4.08
2019-01-18T00:57:38.157Z,4.15
2019-01-18T00:58:38.247Z,4.07
2019-01-18T00:59:38.326Z,4.08
2019-01-18T01:00:38.419Z,4.07
2019-01-18T01:01:38.504Z,4.01
2019-01-18T01:02:38.583Z,4.14
2019-01-18T01:03:38.671Z,4.00
2019-01-18T01:04:38.762Z,3.98
2019-01-18T01:05:38.844Z,4.00
2019-01-18T01:06:38.934Z,3.90
2019-01-18T01:07:39.021Z,3.92
2019-01-18T01:08:39.107Z,3.97
2019-01-18T01:09:39.196Z,4.00
2019-01-18T01:10:39.280Z,4.01
2019-01-18T01:11:39.370Z,3.88
2019-01-18T01:12:39.456Z,3.80
2019-01-18T01:13:39.544Z,3.72
2019-01-18T01:14:39.635Z,3.72
2019-01-18T01:15:39.722Z,3.88
2019-01-18T01:16:39.818Z,3.90
2019-01-18T01:17:39.906Z,3.96
2019-01-18T01:18:39.993Z,3.89
2019-01-18T01:19:40.081Z,3.92
2019-01-18T01:20:40.166Z,3.97
2019-01-18T01:21:40.254Z,4.01
2019-01-18T01:22:40.344Z,4.00
2019-01-18T01:23:40.435Z,3.94
2019-01-18T01:24:40.521Z,3.92
2019-01-18T01:25:40.607Z,4.04
2019-01-18T01:26:40.693Z,4.01
2019-01-18T01:27:40.779Z,3.97
2019-01-18T01:28:40.867Z,4.01
2019-01-18T01:29:43.195Z,3.97
2019-01-18T01:30:41.040Z,4.10
2019-01-18T01:31:41.129Z,4.06
2019-01-18T01:32:41.215Z,3.98
2019-01-18T01:33:41.304Z,3.98
2019-01-18T01:34:41.389Z,4.01
2019-01-18T01:35:41.481Z,4.04
2019-01-18T01:36:41.568Z,4.03
2019-01-18T01:37:41.653Z,4.01
2019-01-18T01:38:41.743Z,3.86
2019-01-18T01:39:41.833Z,3.89
2019-01-18T01:40:41.916Z,3.82
2019-01-18T01:41:41.999Z,3.96
2019-01-18T01:42:42.096Z,3.86
2019-01-18T01:43:42.188Z,3.88
2019-01-18T01:44:42.276Z,3.88
2019-01-18T01:45:42.359Z,3.90
2019-01-18T01:46:42.444Z,3.92
2019-01-18T01:47:42.527Z,3.94
2019-01-18T01:48:42.609Z,3.97
2019-01-18T01:49:42.700Z,3.90
2019-01-18T01:50:42.789Z,3.89
2019-01-18T01:51:42.877Z,3.83
2019-01-18T01:52:42.960Z,3.76
2019-01-18T01:53:43.046Z,3.85
2019-01-18T01:54:43.134Z,3.86
2019-01-18T01:55:43.221Z,3.97
2019-01-18T01:56:43.303Z,3.97
2019-01-18T01:57:43.390Z,3.92
2019-01-18T01:58:43.484Z,3.94
2019-01-18T01:59:49.676Z,3.97
2019-01-18T02:00:43.656Z,3.98
2019-01-18T02:01:43.750Z,4.07
2019-01-18T02:02:43.840Z,4.07
2019-01-18T02:03:43.920Z,4.12
2019-01-18T02:04:44.006Z,4.12
2019-01-18T02:05:44.112Z,4.04
2019-01-18T02:06:44.201Z,4.15
2019-01-18T02:07:44.290Z,4.22
2019-01-18T02:08:44.374Z,4.26
2019-01-18T02:09:44.460Z,4.22
2019-01-18T02:10:44.546Z,4.25
2019-01-18T02:11:44.632Z,4.21
2019-01-18T02:12:44.721Z,4.26
2019-01-18T02:13:44.807Z,4.24
2019-01-18T02:14:44.894Z,4.29
2019-01-18T02:15:44.982Z,4.26
2019-01-18T02:16:45.068Z,4.25
2019-01-18T02:17:45.153Z,4.32
2019-01-18T02:18:45.240Z,4.28
2019-01-18T02:19:45.326Z,4.18
2019-01-18T02:20:45.413Z,4.12
2019-01-18T02:21:45.497Z,4.01
2019-01-18T02:22:45.582Z,3.82
2019-01-18T02:23:45.670Z,3.65
2019-01-18T02:24:45.758Z,3.67
2019-01-18T02:25:45.840Z,3.60
2019-01-18T02:26:45.933Z,3.58
2019-01-18T02:27:46.019Z,3.62
2019-01-18T02:28:46.105Z,3.68
2019-01-18T02:29:46.189Z,3.80
2019-01-18T02:30:46.280Z,3.85
2019-01-18T02:31:46.365Z,3.86
2019-01-18T02:32:46.462Z,3.92
2019-01-18T02:33:46.540Z,3.89
2019-01-18T02:34:46.625Z,3.86
2019-01-18T02:35:46.713Z,3.89
2019-01-18T02:36:46.792Z,3.92
2019-01-18T02:37:46.876Z,3.89
2019-01-18T02:38:46.953Z,3.85
2019-01-18T02:39:47.054Z,3.90
2019-01-18T02:40:47.137Z,3.89
2019-01-18T02:41:47.217Z,4.06
2019-01-18T02:42:47.299Z,4.08
2019-01-18T02:43:47.386Z,4.10
2019-01-18T02:44:47.471Z,3.96
2019-01-18T02:45:47.563Z,4.01
2019-01-18T02:46:47.653Z,4.01
2019-01-18T02:47:47.736Z,3.88
2019-01-18T02:48:47.828Z,3.79
2019-01-18T02:49:47.907Z,3.67
2019-01-18T02:50:48.003Z,3.44
2019-01-18T02:51:48.094Z,3.47
2019-01-18T02:52:48.182Z,3.21
2019-01-18T02:53:48.269Z,3.36
2019-01-18T02:54:48.358Z,3.39
2019-01-18T02:55:48.531Z,3.36
2019-01-18T02:56:48.538Z,3.36
2019-01-18T02:57:48.627Z,3.42
2019-01-18T02:58:48.718Z,3.44
2019-01-18T02:59:48.798Z,3.62
2019-01-18T03:00:48.892Z,3.60
2019-01-18T03:01:48.979Z,3.62
2019-01-18T03:02:49.071Z,3.65
2019-01-18T03:03:49.159Z,3.65
2019-01-18T03:04:49.238Z,3.61
2019-01-18T03:05:49.328Z,3.54
2019-01-18T03:06:49.424Z,3.61
2019-01-18T03:07:49.512Z,3.61
2019-01-18T03:08:49.592Z,3.47
2019-01-18T03:09:49.674Z,3.50
2019-01-18T03:10:49.769Z,3.47
2019-01-18T03:11:49.858Z,3.43
2019-01-18T03:12:49.938Z,3.34
2019-01-18T03:13:50.073Z,3.28
2019-01-18T03:14:50.116Z,3.34
2019-01-18T03:15:50.201Z,3.39
2019-01-18T03:16:50.291Z,3.34
2019-01-18T03:17:50.375Z,3.23
2019-01-18T03:18:50.457Z,3.27
2019-01-18T03:19:50.544Z,3.30
2019-01-18T03:20:50.633Z,3.21
2019-01-18T03:21:50.717Z,3.24
2019-01-18T03:22:50.803Z,3.23
2019-01-18T03:23:50.896Z,3.28
2019-01-18T03:24:50.968Z,3.20
2019-01-18T03:25:51.050Z,3.25
2019-01-18T03:26:51.141Z,3.23
2019-01-18T03:27:51.230Z,3.25
2019-01-18T03:28:51.320Z,3.27
2019-01-18T03:29:51.406Z,3.34
2019-01-18T03:30:51.494Z,3.28
2019-01-18T03:31:51.583Z,3.46
2019-01-18T03:32:51.672Z,3.44
2019-01-18T03:33:51.759Z,3.25
2019-01-18T03:34:51.846Z,3.31
2019-01-18T03:35:51.931Z,3.28
2019-01-18T03:36:52.018Z,3.28
2019-01-18T03:37:52.100Z,3.34
2019-01-18T03:38:52.198Z,3.30
2019-01-18T03:39:52.288Z,3.33
2019-01-18T03:40:52.369Z,3.43
2019-01-18T03:41:52.460Z,3.47
2019-01-18T03:42:52.548Z,3.52
2019-01-18T03:43:52.626Z,3.44
2019-01-18T03:46:35.732Z,3.34
2019-01-18T03:47:35.823Z,3.30
2019-01-18T03:48:35.907Z,3.30
2019-01-18T03:49:35.995Z,3.42
2019-01-18T03:50:36.081Z,3.28
2019-01-18T03:51:36.165Z,3.40
2019-01-18T03:52:36.251Z,3.27
2019-01-18T03:53:36.339Z,3.31
2019-01-18T03:54:36.425Z,3.36
2019-01-18T03:55:36.510Z,3.31
2019-01-18T03:56:36.593Z,3.46
2019-01-18T03:57:36.684Z,3.46
2019-01-18T03:58:36.770Z,3.58
2019-01-18T03:59:36.854Z,3.52
2019-01-18T04:00:36.938Z,3.53
2019-01-18T04:01:37.037Z,3.61
2019-01-18T04:02:37.110Z,3.64
2019-01-18T04:03:37.198Z,3.68
2019-01-18T04:04:37.293Z,3.62
2019-01-18T04:05:37.371Z,3.76
2019-01-18T04:06:37.468Z,3.68
2019-01-18T04:07:37.545Z,3.62
2019-01-18T04:08:37.630Z,3.62
2019-01-18T04:09:37.717Z,3.64
2019-01-18T04:10:37.805Z,3.72
2019-01-18T04:11:37.889Z,3.52
2019-01-18T04:12:37.987Z,3.47
2019-01-18T04:13:38.074Z,3.60
2019-01-18T04:14:38.162Z,3.57
2019-01-18T04:15:38.246Z,3.53
2019-01-18T04:16:38.331Z,3.53
2019-01-18T04:17:38.420Z,3.54
2019-01-18T04:18:38.508Z,3.52
2019-01-18T04:19:38.590Z,3.58
2019-01-18T04:20:38.679Z,3.62
2019-01-18T04:21:38.765Z,3.61
2019-01-18T04:22:38.849Z,3.65
2019-01-18T04:23:38.936Z,3.70
2019-01-18T04:24:39.020Z,3.70
2019-01-18T04:25:39.104Z,3.68
2019-01-18T04:26:39.194Z,3.64
2019-01-18T04:27:39.278Z,3.65
2019-01-18T04:28:39.370Z,3.80
2019-01-18T04:29:39.454Z,3.57
2019-01-18T04:30:39.537Z,3.40
2019-01-18T04:31:39.626Z,3.34
2019-01-18T04:32:39.723Z,3.25
2019-01-18T04:33:39.805Z,3.36
2019-01-18T04:34:39.894Z,3.31
2019-01-18T04:35:39.983Z,3.36
2019-01-18T04:36:40.073Z,3.33
2019-01-18T04:37:40.160Z,3.43
2019-01-18T04:38:40.250Z,3.47
2019-01-18T04:39:40.338Z,3.39
2019-01-18T04:40:40.422Z,3.24
2019-01-18T04:41:40.513Z,3.30
2019-01-18T04:42:40.595Z,3.30
2019-01-18T04:43:40.685Z,3.16
2019-01-18T04:44:40.781Z,3.05
2019-01-18T04:45:40.856Z,3.06
2019-01-18T04:46:40.938Z,3.06
2019-01-18T04:47:41.029Z,3.05
2019-01-18T04:48:41.111Z,3.02
2019-01-18T04:49:41.227Z,2.92
2019-01-18T04:50:41.314Z,3.09
2019-01-18T04:51:41.403Z,3.00
2019-01-18T04:52:41.488Z,2.92
2019-01-18T04:53:41.571Z,2.85
2019-01-18T04:54:41.658Z,2.92
2019-01-18T04:55:41.744Z,2.77
2019-01-18T04:56:41.835Z,2.74
2019-01-18T04:57:41.914Z,2.87
2019-01-18T04:58:42.003Z,2.91
2019-01-18T04:59:42.087Z,2.76
2019-01-18T05:00:42.177Z,2.79
2019-01-18T05:01:42.260Z,2.76
2019-01-18T05:02:42.343Z,2.64
2019-01-18T05:03:42.431Z,2.74
2019-01-18T05:04:42.514Z,2.84
2019-01-18T05:05:42.603Z,2.97
2019-01-18T05:06:42.694Z,2.84
2019-01-18T05:07:42.783Z,2.89
2019-01-18T05:08:42.865Z,2.94
2019-01-18T05:09:42.950Z,3.00
2019-01-18T05:10:43.036Z,3.09
2019-01-18T05:11:43.121Z,3.09
2019-01-18T05:12:43.213Z,3.15
2019-01-18T05:13:43.293Z,3.07
2019-01-18T05:14:43.382Z,3.12
2019-01-18T05:15:43.468Z,3.10
2019-01-18T05:16:43.542Z,3.10
2019-01-18T05:17:43.633Z,3.06
2019-01-18T05:18:43.719Z,3.15
2019-01-18T05:19:43.826Z,3.12
2019-01-18T05:20:43.890Z,3.00
2019-01-18T05:21:43.974Z,3.02
2019-01-18T05:22:44.062Z,2.94
2019-01-18T05:23:44.169Z,2.79
2019-01-18T05:24:49.406Z,2.79
2019-01-18T05:25:44.343Z,2.79
2019-01-18T05:26:44.397Z,2.76
2019-01-18T05:27:44.471Z,2.69
2019-01-18T05:28:44.561Z,2.56
2019-01-18T05:29:45.308Z,2.64
2019-01-18T05:30:47.817Z,2.58
2019-01-18T05:31:44.858Z,2.53
2019-01-18T05:32:44.948Z,2.56
2019-01-18T05:33:45.029Z,2.46
2019-01-18T05:34:45.113Z,2.46
2019-01-18T05:35:45.200Z,2.41
2019-01-18T05:36:45.287Z,2.34
2019-01-18T05:37:45.378Z,2.31
2019-01-18T05:38:45.462Z,2.31
2019-01-18T05:39:45.547Z,2.27
2019-01-18T05:40:45.634Z,2.06
2019-01-18T05:41:45.715Z,2.22
2019-01-18T05:42:45.806Z,2.22
2019-01-18T05:43:45.898Z,2.31
2019-01-18T05:44:45.977Z,2.34
2019-01-18T05:45:46.069Z,2.34
2019-01-18T05:46:46.153Z,2.26
2019-01-18T05:47:46.236Z,2.16
2019-01-18T05:48:46.331Z,2.02
2019-01-18T05:49:46.416Z,2.06
2019-01-18T05:50:46.523Z,1.83
2019-01-18T05:51:46.629Z,1.80
2019-01-18T05:52:46.711Z,1.79
2019-01-18T05:53:46.804Z,1.85
2019-01-18T05:54:46.894Z,1.89
2019-01-18T05:55:47.763Z,1.79
2019-01-18T05:56:47.135Z,1.68
2019-01-18T05:57:47.249Z,1.76
2019-01-18T05:58:47.332Z,1.79
2019-01-18T05:59:47.416Z,1.76
2019-01-18T06:00:54.959Z,1.91
2019-01-18T06:01:47.664Z,1.87
2019-01-18T06:02:47.721Z,1.80
2019-01-18T06:03:47.813Z,1.80
2019-01-18T06:04:47.892Z,1.78
2019-01-18T06:05:47.983Z,1.76
2019-01-18T06:06:48.103Z,1.79
2019-01-18T06:07:48.171Z,1.85
2019-01-18T06:08:48.277Z,1.78
2019-01-18T06:09:48.365Z,1.75
2019-01-18T06:10:48.463Z,1.76
2019-01-18T06:11:48.553Z,1.82
2019-01-18T06:12:48.642Z,1.73
2019-01-18T06:13:48.740Z,1.73
2019-01-18T06:14:48.832Z,1.78
2019-01-18T06:15:48.925Z,1.80
2019-01-18T06:19:32.112Z,1.76
2019-01-18T06:20:32.203Z,1.75
2019-01-18T06:21:32.285Z,1.83
2019-01-18T06:22:32.368Z,1.85
2019-01-18T06:23:32.456Z,1.72
2019-01-18T06:24:32.549Z,1.75
2019-01-18T06:25:32.629Z,1.75
2019-01-18T06:26:32.711Z,1.62
2019-01-18T06:27:32.798Z,1.60
2019-01-18T06:28:32.883Z,1.62
2019-01-18T06:29:32.968Z,1.55
2019-01-18T06:30:33.054Z,1.58
2019-01-18T06:31:33.147Z,1.55
2019-01-18T06:32:33.250Z,1.61
2019-01-18T06:33:33.335Z,1.47
2019-01-18T06:34:33.426Z,1.52
2019-01-18T06:35:33.513Z,1.51
2019-01-18T06:36:33.593Z,1.47
2019-01-18T06:37:33.681Z,1.52
2019-01-18T06:38:33.771Z,1.40
2019-01-18T06:39:33.855Z,1.50
2019-01-18T06:40:33.943Z,1.39
2019-01-18T06:41:34.030Z,1.43
2019-01-18T06:42:34.116Z,1.47
2019-01-18T06:43:34.203Z,1.40
2019-01-18T06:44:34.333Z,1.46
2019-01-18T06:45:34.374Z,1.37
2019-01-18T06:46:34.465Z,1.39
2019-01-18T06:47:34.555Z,1.37
2019-01-18T06:48:34.642Z,1.42
2019-01-18T06:49:34.721Z,1.43
2019-01-18T06:50:34.836Z,1.32
2019-01-18T06:51:34.926Z,1.21
2019-01-18T06:52:35.003Z,1.16
2019-01-18T06:53:35.089Z,1.01
2019-01-18T06:54:35.179Z,0.82
2019-01-18T06:55:35.263Z,0.80
2019-01-18T06:56:35.348Z,0.76
2019-01-18T06:57:35.434Z,0.67
2019-01-18T06:58:35.528Z,0.82
2019-01-18T06:59:35.615Z,0.89
2019-01-18T07:00:35.701Z,0.83
2019-01-18T07:01:35.784Z,0.88
2019-01-18T07:02:35.868Z,0.82
2019-01-18T07:03:35.956Z,0.80
2019-01-18T07:04:40.760Z,0.86
2019-01-18T07:05:36.121Z,0.88
2019-01-18T07:06:36.214Z,0.80
2019-01-18T07:07:36.300Z,0.79
2019-01-18T07:08:36.386Z,0.70
2019-01-18T07:09:36.478Z,0.89
2019-01-18T07:10:36.555Z,0.86
2019-01-18T07:11:36.629Z,0.79
2019-01-18T07:12:36.721Z,0.83
2019-01-18T07:13:36.816Z,0.85
2019-01-18T07:14:36.888Z,0.80
2019-01-18T07:15:36.973Z,0.83
2019-01-18T07:16:37.059Z,0.88
2019-01-18T07:17:37.150Z,0.80
2019-01-18T07:18:37.220Z,0.79
2019-01-18T07:19:37.308Z,0.92
2019-01-18T07:20:37.393Z,0.72
2019-01-18T07:21:37.477Z,0.82
2019-01-18T07:22:37.561Z,0.79
2019-01-18T07:23:37.652Z,0.88
2019-01-18T07:24:37.740Z,0.89
2019-01-18T07:25:37.822Z,0.80
2019-01-18T07:26:37.912Z,0.75
2019-01-18T07:27:38.000Z,0.85
2019-01-18T07:28:38.089Z,0.86
2019-01-18T07:29:38.173Z,0.80
2019-01-18T07:30:38.259Z,0.88
2019-01-18T07:31:38.348Z,0.79
2019-01-18T07:32:38.433Z,0.90
2019-01-18T07:33:38.519Z,0.96
2019-01-18T07:34:38.602Z,0.82
2019-01-18T07:35:38.688Z,0.96
2019-01-18T07:36:38.776Z,0.89
2019-01-18T07:37:38.860Z,0.78
2019-01-18T07:38:38.945Z,0.72
2019-01-18T07:39:39.030Z,0.96
2019-01-18T07:40:39.120Z,0.88
2019-01-18T07:41:39.225Z,0.79
2019-01-18T07:42:39.302Z,0.83
2019-01-18T07:43:39.385Z,0.88
2019-01-18T07:44:39.471Z,0.79
2019-01-18T07:45:39.552Z,0.90
2019-01-18T07:46:39.636Z,0.76
2019-01-18T07:47:39.716Z,0.85
2019-01-18T07:48:39.809Z,0.76
2019-01-18T07:49:39.892Z,0.71
2019-01-18T07:50:40.046Z,0.78
2019-01-18T07:51:40.134Z,0.82
2019-01-18T07:52:40.216Z,0.80
2019-01-18T07:53:40.303Z,0.78
2019-01-18T07:54:40.390Z,0.85
2019-01-18T07:55:40.481Z,0.82
2019-01-18T07:56:40.568Z,0.75
2019-01-18T07:57:40.659Z,0.85
2019-01-18T07:58:40.744Z,0.85
2019-01-18T07:59:40.829Z,0.80
2019-01-18T08:00:40.924Z,0.85
2019-01-18T08:01:41.008Z,0.94
2019-01-18T08:02:41.090Z,0.90
2019-01-18T08:03:41.178Z,1.00
2019-01-18T08:04:41.264Z,1.08
2019-01-18T08:05:41.350Z,1.08
2019-01-18T08:06:41.437Z,1.16
2019-01-18T08:07:41.522Z,1.08
2019-01-18T08:08:41.609Z,1.12
2019-01-18T08:09:41.696Z,1.22
2019-01-18T08:10:41.779Z,1.21
2019-01-18T08:11:41.870Z,1.19
2019-01-18T08:12:41.954Z,1.24
2019-01-18T08:13:42.040Z,1.29
2019-01-18T08:14:42.130Z,1.32
2019-01-18T08:15:42.218Z,1.37
2019-01-18T08:16:43.579Z,1.29
2019-01-18T08:17:42.390Z,1.36
2019-01-18T08:18:42.547Z,1.36
2019-01-18T08:19:42.510Z,1.37
2019-01-18T08:20:42.598Z,1.36
2019-01-18T08:21:42.698Z,1.34
2019-01-18T08:22:42.774Z,1.39
2019-01-18T08:23:42.855Z,1.34
2019-01-18T08:24:42.982Z,1.44
2019-01-18T08:25:43.027Z,1.34
2019-01-18T08:26:43.113Z,1.42
2019-01-18T08:27:43.205Z,1.39
2019-01-18T08:28:43.291Z,1.34
2019-01-18T08:29:43.373Z,1.32
2019-01-18T08:30:43.467Z,1.28
2019-01-18T08:31:43.549Z,1.32
2019-01-18T08:32:43.643Z,1.21
2019-01-18T08:33:43.726Z,1.14
2019-01-18T08:34:43.812Z,1.01
2019-01-18T08:35:43.897Z,1.14
2019-01-18T08:36:43.984Z,1.01
2019-01-18T08:37:44.068Z,1.15
2019-01-18T08:38:44.152Z,1.16
2019-01-18T08:39:44.245Z,1.14
2019-01-18T08:40:44.330Z,1.26
2019-01-18T08:41:44.414Z,1.29
2019-01-18T08:42:44.499Z,1.36
2019-01-18T08:43:44.588Z,1.36
2019-01-18T08:44:44.673Z,1.40
2019-01-18T08:45:44.762Z,1.36
2019-01-18T08:46:44.848Z,1.40
2019-01-18T08:47:44.930Z,1.47
2019-01-18T08:48:45.024Z,1.46
2019-01-18T08:49:45.113Z,1.54
2019-01-18T08:50:45.208Z,1.50
2019-01-18T08:51:45.285Z,1.57
2019-01-18T08:52:45.370Z,1.60
2019-01-18T08:53:45.456Z,1.64
2019-01-18T08:54:45.541Z,1.72
2019-01-18T08:55:45.627Z,1.76
2019-01-18T08:56:45.715Z,1.76
2019-01-18T08:57:45.805Z,1.73
2019-01-18T08:58:45.885Z,1.79
2019-01-18T08:59:45.973Z,1.75
2019-01-18T09:00:46.055Z,1.85
2019-01-18T09:01:46.145Z,1.89
2019-01-18T09:02:46.230Z,1.89
2019-01-18T09:03:46.317Z,1.93
2019-01-18T09:04:46.408Z,1.93
2019-01-18T09:05:46.490Z,1.91
2019-01-18T09:06:46.584Z,1.97
2019-01-18T09:07:46.675Z,2.08
2019-01-18T09:08:46.757Z,2.06
2019-01-18T09:09:46.854Z,2.12
2019-01-18T09:10:46.937Z,2.26
2019-01-18T09:11:47.025Z,2.19
2019-01-18T09:12:47.112Z,2.23
2019-01-18T09:13:47.201Z,2.26
2019-01-18T09:14:47.288Z,2.37
2019-01-18T09:15:47.377Z,2.35
2019-01-18T09:16:47.463Z,2.44
2019-01-18T09:17:47.554Z,2.35
2019-01-18T09:18:47.646Z,2.38
2019-01-18T09:19:47.733Z,2.37
2019-01-18T09:20:47.821Z,2.37
2019-01-18T09:21:47.912Z,2.41
2019-01-18T09:22:48.000Z,2.38
2019-01-18T09:23:48.088Z,2.48
2019-01-18T09:24:48.173Z,2.52
2019-01-18T09:25:48.262Z,2.41
2019-01-18T09:26:48.352Z,2.49
2019-01-18T09:27:48.437Z,2.53
2019-01-18T09:28:48.523Z,2.56
2019-01-18T09:29:48.611Z,2.58
2019-01-18T09:30:48.700Z,2.61
2019-01-18T09:31:48.795Z,2.64
2019-01-18T09:32:48.876Z,2.69
2019-01-18T09:33:48.964Z,2.71
2019-01-18T09:34:49.051Z,2.77
2019-01-18T09:35:49.141Z,2.82
2019-01-18T09:36:49.225Z,2.92
2019-01-18T09:37:49.310Z,2.92
2019-01-18T09:38:49.399Z,2.98
2019-01-18T09:39:49.481Z,2.92
2019-01-18T09:40:49.564Z,3.05
2019-01-18T09:41:49.652Z,3.03
2019-01-18T09:42:49.745Z,3.13
2019-01-18T09:43:49.826Z,3.10
2019-01-18T09:44:49.920Z,3.18
2019-01-18T09:45:50.006Z,3.09
2019-01-18T09:46:50.093Z,3.25
2019-01-18T09:47:50.182Z,3.30
2019-01-18T09:48:50.269Z,3.33
2019-01-18T09:49:50.358Z,3.15
2019-01-18T09:50:50.447Z,3.21
2019-01-18T09:51:50.537Z,3.30
2019-01-18T09:52:50.624Z,3.40
2019-01-18T09:53:50.711Z,3.31
2019-01-18T09:54:50.801Z,3.24
2019-01-18T09:55:50.890Z,3.43
2019-01-18T09:56:50.977Z,3.27
2019-01-18T09:57:51.065Z,3.43
2019-01-18T09:58:51.151Z,3.40
2019-01-18T09:59:51.263Z,3.47
2019-01-18T10:00:51.352Z,3.36
2019-01-18T10:01:51.444Z,3.44
2019-01-18T10:02:51.528Z,3.49
2019-01-18T10:03:51.612Z,3.53
2019-01-18T10:04:51.712Z,3.60
2019-01-18T10:05:51.792Z,3.62
2019-01-18T10:06:51.892Z,3.82
2019-01-18T10:07:51.978Z,3.80
2019-01-18T10:08:52.067Z,3.76
2019-01-18T10:09:52.153Z,3.71
2019-01-18T10:10:52.241Z,3.79
2019-01-18T10:11:52.332Z,3.92
2019-01-18T10:12:52.414Z,3.89
2019-01-18T10:13:52.503Z,4.00
2019-01-18T10:14:52.600Z,4.00
2019-01-18T10:15:52.681Z,4.07
2019-01-18T10:16:52.765Z,4.08
2019-01-18T10:17:52.856Z,4.08
2019-01-18T10:18:52.944Z,4.08
2019-01-18T10:19:53.033Z,4.07
2019-01-18T10:20:53.126Z,4.07
2019-01-18T10:21:53.213Z,4.12
2019-01-18T10:22:53.300Z,4.19
2019-01-18T10:23:53.389Z,4.25
2019-01-18T10:24:53.478Z,4.26
2019-01-18T10:25:53.563Z,4.33
2019-01-18T10:26:53.652Z,4.34
2019-01-18T10:27:53.740Z,4.36
2019-01-18T10:28:53.825Z,4.37
2019-01-18T10:29:53.915Z,4.39
2019-01-18T10:30:54.020Z,4.37
2019-01-18T10:31:56.124Z,4.47
2019-01-18T10:32:54.196Z,4.52
2019-01-18T10:33:54.284Z,4.64
2019-01-18T10:34:54.374Z,4.47
2019-01-18T10:35:54.460Z,4.64
2019-01-18T10:36:54.940Z,4.54
2019-01-18T10:37:54.641Z,4.57
2019-01-18T10:38:54.726Z,4.54
2019-01-18T10:39:54.817Z,4.58
2019-01-18T10:40:54.905Z,4.54
2019-01-18T10:41:54.998Z,4.61
2019-01-18T10:42:55.639Z,4.65
2019-01-18T10:43:55.172Z,4.64
2019-01-18T10:44:56.482Z,4.73
2019-01-18T10:45:55.350Z,4.77
2019-01-18T10:46:55.441Z,4.83
2019-01-18T10:47:55.530Z,4.84
2019-01-18T10:48:55.625Z,4.77
2019-01-18T10:49:55.711Z,4.89
2019-01-18T10:50:55.799Z,4.91
2019-01-18T10:51:55.908Z,4.89
2019-01-18T10:52:55.988Z,4.80
2019-01-18T10:53:56.083Z,5.01
2019-01-18T10:54:56.169Z,4.98
2019-01-18T10:55:56.266Z,4.98
2019-01-18T10:56:56.353Z,4.95
2019-01-18T10:57:56.440Z,5.05
2019-01-18T10:58:56.529Z,5.10
2019-01-18T10:59:56.621Z,5.10
2019-01-18T11:00:56.707Z,5.07
2019-01-18T11:02:03.306Z,5.10
2019-01-18T11:02:56.885Z,5.09
2019-01-18T11:03:56.971Z,5.07
2019-01-18T11:04:57.060Z,5.07
2019-01-18T11:05:57.152Z,5.16
2019-01-18T11:06:57.236Z,5.16
2019-01-18T11:07:57.328Z,5.10
2019-01-18T11:08:57.408Z,5.20
2019-01-18T11:09:57.504Z,5.09
2019-01-18T11:10:57.605Z,5.14
2019-01-18T11:11:57.686Z,5.13
2019-01-18T11:12:57.783Z,5.19
2019-01-18T11:13:57.870Z,5.14
2019-01-18T11:14:57.966Z,5.22
2019-01-18T11:15:58.058Z,4.92
2019-01-18T11:16:58.148Z,5.01
2019-01-18T11:17:58.234Z,5.09
2019-01-18T11:18:58.328Z,5.07
2019-01-18T11:19:58.407Z,5.07
2019-01-18T11:20:58.504Z,5.10
2019-01-18T11:21:58.594Z,5.16
2019-01-18T11:22:58.685Z,5.19
2019-01-18T11:23:58.774Z,5.38
2019-01-18T11:24:58.865Z,5.37
2019-01-18T11:25:58.957Z,5.28
2019-01-18T11:26:59.044Z,5.31
2019-01-18T11:27:59.142Z,5.49
2019-01-18T11:28:59.227Z,5.53
2019-01-18T11:29:59.320Z,5.56
2019-01-18T11:30:59.398Z,5.52
2019-01-18T11:31:59.493Z,5.55
2019-01-18T11:32:59.579Z,5.60
2019-01-18T11:33:59.672Z,5.59
2019-01-18T11:34:59.762Z,5.63
2019-01-18T11:35:59.844Z,5.70
2019-01-18T11:37:00.004Z,5.59
2019-01-18T11:38:00.075Z,5.73
2019-01-18T11:39:00.168Z,5.63
2019-01-18T11:40:00.254Z,5.67
2019-01-18T11:41:00.345Z,5.66
2019-01-18T11:42:00.437Z,5.68
2019-01-18T11:43:00.534Z,5.70
2019-01-18T11:44:00.620Z,5.75
2019-01-18T11:45:00.717Z,5.66
2019-01-18T11:46:00.821Z,5.68
2019-01-18T11:47:00.915Z,5.73
2019-01-18T11:48:01.006Z,5.67
2019-01-18T11:49:01.093Z,5.83
2019-01-18T11:50:01.246Z,5.75
2019-01-18T11:51:01.279Z,5.75
2019-01-18T11:52:01.374Z,5.52
2019-01-18T11:53:01.464Z,5.40
2019-01-18T11:54:01.559Z,5.45
2019-01-18T11:55:01.652Z,5.64
2019-01-18T11:56:01.742Z,5.77
2019-01-18T11:57:01.833Z,5.71
2019-01-18T11:58:01.924Z,5.83
2019-01-18T11:59:02.021Z,5.89
2019-01-18T12:00:02.112Z,5.86
2019-01-18T12:01:02.207Z,5.92
2019-01-18T12:02:02.297Z,5.92
2019-01-18T12:03:02.383Z,5.88
2019-01-18T12:04:02.476Z,5.93
2019-01-18T12:05:02.568Z,5.92
2019-01-18T12:06:02.661Z,5.89
2019-01-18T12:07:02.753Z,5.93
2019-01-18T12:08:02.843Z,5.88
2019-01-18T12:09:02.933Z,5.78
2019-01-18T12:10:03.027Z,5.92
2019-01-18T12:11:03.117Z,6.00
2019-01-18T12:12:03.215Z,5.98
2019-01-18T12:13:03.311Z,5.93
2019-01-18T12:14:03.395Z,5.98
2019-01-18T12:15:03.481Z,5.75
2019-01-18T12:16:03.572Z,5.82
2019-01-18T12:17:03.673Z,5.83
2019-01-18T12:18:03.769Z,5.98
2019-01-18T12:19:03.859Z,5.96
2019-01-18T12:20:03.953Z,6.07
2019-01-18T12:21:04.044Z,6.00
2019-01-18T12:22:04.141Z,6.10
2019-01-18T12:23:04.232Z,6.11
2019-01-18T12:24:04.330Z,6.28
2019-01-18T12:25:04.426Z,6.33
2019-01-18T12:26:04.518Z,6.41
2019-01-18T12:27:04.619Z,6.51
2019-01-18T12:28:04.704Z,6.59
2019-01-18T12:29:04.796Z,6.63
2019-01-18T12:30:04.890Z,6.66
2019-01-18T12:31:04.981Z,6.53
2019-01-18T12:32:05.086Z,6.51
2019-01-18T12:33:05.174Z,6.51
2019-01-18T12:34:05.266Z,6.48
2019-01-18T12:35:05.361Z,6.41
2019-01-18T12:36:05.461Z,6.36
2019-01-18T12:37:05.551Z,6.36
2019-01-18T12:38:05.643Z,6.38
2019-01-18T12:39:05.736Z,6.40
2019-01-18T12:40:05.896Z,6.47
2019-01-18T12:41:05.850Z,6.50
2019-01-18T12:42:05.948Z,6.50
2019-01-18T12:43:06.038Z,6.33
2019-01-18T12:44:06.133Z,6.32
2019-01-18T12:45:06.224Z,6.35
2019-01-18T12:46:06.325Z,6.36
2019-01-18T12:47:06.421Z,6.32
2019-01-18T12:48:06.511Z,6.21
2019-01-18T12:49:06.600Z,6.30
2019-01-18T12:50:06.688Z,6.36
2019-01-18T12:51:06.779Z,6.18
2019-01-18T12:52:06.875Z,6.29
2019-01-18T12:53:06.974Z,6.25
2019-01-18T12:54:07.072Z,6.33
2019-01-18T12:55:07.159Z,6.41
2019-01-18T12:56:07.253Z,6.44
2019-01-18T12:57:07.344Z,6.44
2019-01-18T12:58:07.438Z,6.41
2019-01-18T12:59:07.536Z,6.51
2019-01-18T13:00:07.632Z,6.46
2019-01-18T13:01:07.723Z,6.53
2019-01-18T13:02:07.813Z,6.51
2019-01-18T13:03:07.905Z,6.53
2019-01-18T13:04:08.318Z,6.56
2019-01-18T13:05:08.088Z,6.47
2019-01-18T13:06:08.181Z,6.50
2019-01-18T13:07:08.272Z,6.62
2019-01-18T13:08:08.369Z,6.47
2019-01-18T13:09:08.458Z,6.51
2019-01-18T13:10:12.096Z,6.46
2019-01-18T13:11:08.652Z,6.51
2019-01-18T13:12:08.729Z,6.50
2019-01-18T13:13:09.674Z,6.46
2019-01-18T13:14:08.918Z,6.38
2019-01-18T13:15:09.015Z,6.44
2019-01-18T13:16:09.103Z,6.43
2019-01-18T13:17:09.198Z,6.50
2019-01-18T13:18:09.289Z,6.43
2019-01-18T13:19:09.380Z,6.46
2019-01-18T13:20:09.471Z,6.35
2019-01-18T13:21:09.562Z,6.44
2019-01-18T13:22:09.651Z,6.44
2019-01-18T13:23:09.729Z,6.41
2019-01-18T13:24:09.830Z,6.43